Time;durP1;ratioP1;P1;durP2;ratioP2;P2;SDS_P1;SDS_P2;PMS_P1;PMS_P2;Temp;Humidity;BMP_temperature;BMP_pressure;BME280_temperature;BME280_humidity;BME280_pressure;Samples;Min_cycle;Max_cycle;Signal;HPM_P1;HPM_P2
2022/01/10 00:01:08;;;;;;;;;;;2.90;99.90;;;;;;4856933;29;19935;-82
2022/01/10 00:03:37;;;;;;;;;;;2.90;99.90;;;;;;4856205;29;19928;-79
2022/01/10 00:06:05;;;;;;;;;;;2.90;99.90;;;;;;4870289;29;19939;-80
2022/01/10 00:08:34;;;;;;;;;;;2.90;99.90;;;;;;4870845;29;19944;-80
2022/01/10 00:11:02;;;;;;;;;;;2.80;99.90;;;;;;4866593;29;19929;-82
2022/01/10 00:13:33;;;;;;;;;;;2.80;99.90;;;;;;4870238;29;20396;-80
2022/01/10 00:16:01;;;;;;;;;;;2.90;99.90;;;;;;4872091;29;19928;-80
2022/01/10 00:18:29;;;;;;;;;;;2.80;99.90;;;;;;4840782;29;19939;-79
2022/01/10 00:20:57;;;;;;;;;;;2.80;99.90;;;;;;4856114;29;19928;-81
2022/01/10 00:23:25;;;;;;;;;;;2.80;99.90;;;;;;4870449;29;19932;-80
2022/01/10 00:25:53;;;;;;;;;;;2.80;99.90;;;;;;4869439;29;19932;-80
2022/01/10 00:28:21;;;;;;;;;;;2.70;99.90;;;;;;4839532;29;19932;-80
2022/01/10 00:43:39;;;;;;;;;;;2.60;99.90;;;;;;4853272;29;19931;-81
2022/01/10 00:46:07;;;;;;;;;;;2.50;99.90;;;;;;4836391;29;19929;-81
2022/01/10 00:49:01;;;;;;;;;;;2.70;99.90;;;;;;4837696;29;20042;-82
2022/01/10 00:51:50;;;;;;;;;;;2.50;99.90;;;;;;4854644;29;19928;-82
2022/01/10 00:54:19;;;;;;;;;;;2.40;99.90;;;;;;4854804;29;19932;-80
2022/01/10 00:56:47;;;;;;;;;;;2.40;99.90;;;;;;4866529;29;19927;-81
2022/01/10 00:59:15;;;;;;;;;;;2.30;99.90;;;;;;4860595;29;19932;-80
2022/01/10 01:01:43;;;;;;;;;;;2.40;99.90;;;;;;4871752;29;19972;-81
2022/01/10 01:04:11;;;;;;;;;;;2.30;99.90;;;;;;4842541;29;19935;-80
2022/01/10 01:06:39;;;;;;;;;;;2.30;99.90;;;;;;4835889;29;19936;-80
2022/01/10 01:09:11;;;;;;;;;;;2.30;99.90;;;;;;4850023;29;19936;-80
2022/01/10 01:14:51;;;;;;;;;;;2.20;99.90;;;;;;4869195;29;19932;-81
2022/01/10 01:26:53;;;;;;;;;;;2.10;99.90;;;;;;4876831;29;19928;-81
2022/01/10 01:32:58;;;;;;;;;;;2.00;99.90;;;;;;4872325;29;19916;-81
2022/01/10 01:39:30;;;;;;;;;;;2.00;99.90;;;;;;4855539;29;19916;-81
2022/01/10 01:42:38;;;;;;;;;;;2.00;99.90;;;;;;4839959;29;19932;-80
2022/01/10 01:45:10;;;;;;;;;;;1.90;99.90;;;;;;4822334;29;19939;-81
2022/01/10 01:54:48;;;;;;;;;;;1.90;99.90;;;;;;4869054;29;19932;-81
2022/01/10 02:00:58;;;;;;;;;;;1.90;99.90;;;;;;4871891;29;20007;-81
2022/01/10 02:07:11;;;;;;;;;;;1.90;99.90;;;;;;4871928;29;19920;-82
2022/01/10 02:10:08;;;;;;;;;;;1.90;99.90;;;;;;4871939;29;19928;-83
2022/01/10 02:12:38;;;;;;;;;;;1.90;99.90;;;;;;4854283;29;19932;-81
2022/01/10 02:15:32;;;;;;;;;;;1.90;99.90;;;;;;4854434;29;19928;-81
2022/01/10 02:18:04;;;;;;;;;;;4.00;99.90;;;;;;4853013;29;19939;-81
2022/01/10 02:20:33;;;;;;;;;;;1.90;99.90;;;;;;4853419;29;19936;-81
2022/01/10 02:26:28;;;;;;;;;;;1.90;99.90;;;;;;4847302;29;19938;-80
2022/01/10 02:28:56;;;;;;;;;;;1.90;99.90;;;;;;4868677;29;19928;-82
2022/01/10 02:31:26;;;;;;;;;;;1.90;99.90;;;;;;4835191;29;19939;-81
2022/01/10 02:33:57;;;;;;;;;;;2.00;99.90;;;;;;4865275;29;20428;-81
2022/01/10 02:36:27;;;;;;;;;;;2.20;99.90;;;;;;4870723;29;19928;-81
2022/01/10 02:39:07;;;;;;;;;;;2.00;99.90;;;;;;4887563;29;19938;-80
2022/01/10 02:42:14;;;;;;;;;;;1.80;99.90;;;;;;4888038;29;19935;-80
2022/01/10 02:44:43;;;;;;;;;;;1.80;99.90;;;;;;4856916;29;19928;-80
2022/01/10 02:47:12;;;;;;;;;;;1.80;99.90;;;;;;4871756;29;19928;-80
2022/01/10 02:49:42;;;;;;;;;;;1.70;99.90;;;;;;4860725;29;19936;-80
2022/01/10 02:52:36;;;;;;;;;;;1.80;99.90;;;;;;4845837;29;19928;-81
2022/01/10 02:55:12;;;;;;;;;;;1.70;99.90;;;;;;4870548;29;19928;-79
2022/01/10 02:57:41;;;;;;;;;;;1.70;99.90;;;;;;4856427;29;19932;-80
2022/01/10 03:00:15;;;;;;;;;;;1.70;99.90;;;;;;4840805;29;19932;-79
2022/01/10 03:02:44;;;;;;;;;;;1.70;99.90;;;;;;4841459;29;19928;-80
2022/01/10 03:08:38;;;;;;;;;;;1.70;99.90;;;;;;4857264;29;19950;-79
2022/01/10 03:11:33;;;;;;;;;;;1.70;99.90;;;;;;4855341;29;19928;-80
2022/01/10 03:14:26;;;;;;;;;;;1.70;99.90;;;;;;4854718;29;19935;-81
2022/01/10 03:16:54;;;;;;;;;;;1.70;99.90;;;;;;4852555;29;19929;-81
2022/01/10 03:22:41;;;;;;;;;;;1.80;99.90;;;;;;4858519;29;20099;-80
2022/01/10 03:28:43;;;;;;;;;;;1.90;99.90;;;;;;4851876;29;19928;-81
2022/01/10 03:31:12;;;;;;;;;;;1.90;99.90;;;;;;4855971;29;19928;-82
2022/01/10 03:33:41;;;;;;;;;;;2.00;99.90;;;;;;4855796;29;19928;-81
2022/01/10 03:36:12;;;;;;;;;;;2.00;99.90;;;;;;4856121;29;19928;-80
2022/01/10 03:42:49;;;;;;;;;;;2.10;99.90;;;;;;4872281;29;19916;-80
2022/01/10 03:45:18;;;;;;;;;;;2.10;99.90;;;;;;4856474;29;19939;-80
2022/01/10 03:47:47;;;;;;;;;;;2.10;99.90;;;;;;4548394;29;10000212;-82
2022/01/10 03:50:17;;;;;;;;;;;2.10;99.90;;;;;;4869443;29;19928;-79
2022/01/10 03:52:46;;;;;;;;;;;2.10;99.90;;;;;;4841991;29;20469;-79
2022/01/10 03:55:17;;;;;;;;;;;2.10;99.90;;;;;;4856610;29;19932;-80
2022/01/10 03:57:45;;;;;;;;;;;2.20;99.90;;;;;;4855690;29;19932;-80
2022/01/10 04:00:14;;;;;;;;;;;2.20;99.90;;;;;;4840510;29;19935;-81
2022/01/10 04:02:51;;;;;;;;;;;2.20;99.90;;;;;;4870799;29;19943;-80
2022/01/10 04:05:24;;;;;;;;;;;2.20;99.90;;;;;;4841836;29;19928;-80
2022/01/10 04:11:11;;;;;;;;;;;2.20;99.90;;;;;;4872480;29;19933;-80
2022/01/10 04:13:40;;;;;;;;;;;2.30;99.90;;;;;;4871690;29;20059;-81
2022/01/10 04:16:08;;;;;;;;;;;2.30;99.90;;;;;;4855879;29;19932;-81
2022/01/10 04:18:38;;;;;;;;;;;2.30;99.90;;;;;;4870123;29;19935;-80
2022/01/10 04:21:06;;;;;;;;;;;2.40;99.90;;;;;;4873953;29;19935;-82
2022/01/10 04:23:34;;;;;;;;;;;2.40;99.90;;;;;;4857264;29;19936;-80
2022/01/10 04:29:20;;;;;;;;;;;3.00;99.90;;;;;;4874668;29;19943;-80
2022/01/10 04:31:49;;;;;;;;;;;2.40;99.90;;;;;;4842096;29;19928;-83
2022/01/10 04:34:43;;;;;;;;;;;2.50;99.90;;;;;;4856502;29;19935;-80
2022/01/10 04:37:12;;;;;;;;;;;2.60;99.90;;;;;;4857373;29;19935;-80
2022/01/10 04:39:40;;;;;;;;;;;2.60;99.90;;;;;;4857114;29;19932;-80
2022/01/10 04:42:09;;;;;;;;;;;2.60;99.90;;;;;;4842468;29;19928;-79
2022/01/10 04:44:37;;;;;;;;;;;2.70;99.90;;;;;;4872219;29;19928;-79
2022/01/10 04:47:06;;;;;;;;;;;2.70;99.90;;;;;;4857021;29;19939;-80
2022/01/10 04:50:03;;;;;;;;;;;2.70;99.90;;;;;;4872877;29;19932;-81
2022/01/10 04:52:22;;;;;;;;;;;2.70;99.90;;;;;;4872665;29;19934;-79
2022/01/10 04:54:50;;;;;;;;;;;2.70;99.90;;;;;;4856801;29;19928;-80
2022/01/10 05:01:03;;;;;;;;;;;2.80;99.90;;;;;;4842477;29;19929;-82
2022/01/10 05:03:33;;;;;;;;;;;2.80;99.90;;;;;;4851286;29;19928;-83
2022/01/10 05:09:20;;;;;;;;;;;2.90;99.90;;;;;;4875370;29;19931;-80
2022/01/10 05:12:24;;;;;;;;;;;3.00;99.90;;;;;;4857266;29;19928;-80
2022/01/10 05:15:16;;;;;;;;;;;3.00;99.90;;;;;;4839829;29;19932;-80
2022/01/10 05:17:45;;;;;;;;;;;3.00;99.90;;;;;;4871896;29;19932;-83
2022/01/10 05:20:13;;;;;;;;;;;3.00;99.90;;;;;;4856551;29;19935;-82
2022/01/10 05:22:41;;;;;;;;;;;3.00;99.90;;;;;;4873514;29;19932;-80
2022/01/10 05:25:10;;;;;;;;;;;3.00;99.90;;;;;;4858108;29;19942;-80
2022/01/10 05:27:38;;;;;;;;;;;3.00;99.90;;;;;;4855787;29;20152;-80
2022/01/10 05:30:09;;;;;;;;;;;3.10;99.90;;;;;;4859629;29;19938;-79
2022/01/10 05:32:37;;;;;;;;;;;3.10;99.90;;;;;;4844663;29;19928;-79
2022/01/10 05:35:47;;;;;;;;;;;3.10;99.90;;;;;;4881158;29;19928;-82
2022/01/10 05:41:35;;;;;;;;;;;3.10;99.90;;;;;;4859161;29;19935;-83
2022/01/10 05:44:25;;;;;;;;;;;3.20;99.90;;;;;;4852987;29;19928;-79
2022/01/10 05:47:19;;;;;;;;;;;3.20;99.90;;;;;;4872517;29;19928;-82
2022/01/10 05:49:49;;;;;;;;;;;3.20;99.90;;;;;;4851934;29;19935;-82
2022/01/10 05:55:38;;;;;;;;;;;3.20;99.90;;;;;;4867905;29;19932;-80
2022/01/10 05:58:09;;;;;;;;;;;3.30;99.90;;;;;;4853230;29;19928;-80
2022/01/10 06:00:39;;;;;;;;;;;3.30;99.90;;;;;;4843012;29;19935;-79
2022/01/10 06:03:40;;;;;;;;;;;3.20;99.90;;;;;;4861630;29;19939;-81
2022/01/10 06:09:28;;;;;;;;;;;3.30;99.90;;;;;;4852364;29;20335;-79
2022/01/10 06:12:25;;;;;;;;;;;3.30;99.90;;;;;;4854866;29;19928;-81
2022/01/10 06:15:19;;;;;;;;;;;3.30;99.90;;;;;;4854577;29;19928;-82
2022/01/10 06:17:48;;;;;;;;;;;3.40;99.90;;;;;;4822765;29;19928;-81
2022/01/10 06:20:16;;;;;;;;;;;3.40;99.90;;;;;;4845116;29;19932;-81
2022/01/10 06:22:50;;;;;;;;;;;3.30;99.90;;;;;;4868579;29;19928;-80
2022/01/10 06:25:24;;;;;;;;;;;3.40;99.90;;;;;;4854070;29;20440;-79
2022/01/10 06:28:18;;;;;;;;;;;3.40;99.90;;;;;;4854053;29;19937;-81
2022/01/10 06:34:18;;;;;;;;;;;3.40;99.90;;;;;;4852181;29;19928;-81
2022/01/10 06:36:47;;;;;;;;;;;3.40;99.90;;;;;;4852970;29;19935;-80
2022/01/10 06:42:40;;;;;;;;;;;3.40;99.90;;;;;;4868926;29;19928;-80
2022/01/10 06:45:38;;;;;;;;;;;3.40;99.90;;;;;;4822970;29;19929;-80
2022/01/10 06:48:07;;;;;;;;;;;3.40;99.90;;;;;;4851624;29;19940;-80
2022/01/10 06:50:39;;;;;;;;;;;3.40;99.90;;;;;;4867185;29;19928;-80
2022/01/10 06:53:07;;;;;;;;;;;3.40;99.90;;;;;;4853542;29;19932;-81
2022/01/10 06:55:35;;;;;;;;;;;4.60;99.90;;;;;;4852432;29;19932;-82
2022/01/10 06:58:07;;;;;;;;;;;3.50;99.90;;;;;;4853260;29;19928;-80
2022/01/10 07:00:36;;;;;;;;;;;3.50;99.90;;;;;;4862659;29;19931;-80
2022/01/10 07:03:06;;;;;;;;;;;3.50;99.90;;;;;;4860920;29;19932;-80
2022/01/10 07:05:37;;;;;;;;;;;3.50;99.90;;;;;;4852915;29;20236;-80
2022/01/10 07:08:11;;;;;;;;;;;3.50;99.90;;;;;;4838134;29;19939;-82
2022/01/10 07:10:49;;;;;;;;;;;3.60;99.90;;;;;;4852820;29;19928;-81
2022/01/10 07:13:17;;;;;;;;;;;3.60;99.90;;;;;;4853691;29;19928;-79
2022/01/10 07:15:47;;;;;;;;;;;3.60;99.90;;;;;;4837373;29;19929;-79
2022/01/10 07:18:15;;;;;;;;;;;3.60;99.90;;;;;;4853440;29;19932;-81
2022/01/10 07:20:53;;;;;;;;;;;3.50;99.90;;;;;;4830842;29;19932;-79
2022/01/10 07:23:25;;;;;;;;;;;3.60;99.90;;;;;;4859827;29;19936;-80
2022/01/10 07:25:55;;;;;;;;;;;3.60;99.90;;;;;;4869529;29;19932;-81
2022/01/10 07:28:24;;;;;;;;;;;3.60;99.90;;;;;;4856358;29;19936;-80
2022/01/10 07:30:51;;;;;;;;;;;3.70;99.90;;;;;;4852930;29;20370;-83
2022/01/10 07:33:20;;;;;;;;;;;3.60;99.90;;;;;;4869447;29;20257;-82
2022/01/10 07:35:47;;;;;;;;;;;3.70;99.90;;;;;;4839924;29;19934;-80
2022/01/10 07:38:17;;;;;;;;;;;3.70;99.90;;;;;;4858006;29;19932;-79
2022/01/10 07:40:48;;;;;;;;;;;3.70;99.90;;;;;;4855411;29;19940;-80
2022/01/10 07:43:17;;;;;;;;;;;3.80;99.90;;;;;;4874742;29;19928;-83
2022/01/10 07:45:53;;;;;;;;;;;3.80;99.90;;;;;;4835233;29;19933;-82
2022/01/10 07:48:30;;;;;;;;;;;3.80;99.90;;;;;;4854746;29;19939;-85
2022/01/10 08:20:29;;;;;;;;;;;4.00;99.90;;;;;;5127056;27;19912;-90
2022/01/10 08:22:58;;;;;;;;;;;3.80;99.90;;;;;;5073473;28;19925;-89
2022/01/10 08:25:27;;;;;;;;;;;3.60;99.90;;;;;;5072723;28;19936;-90
2022/01/10 08:27:54;;;;;;;;;;;3.90;99.90;;;;;;5074093;28;19939;-88
2022/01/10 08:30:22;;;;;;;;;;;3.80;99.90;;;;;;5080249;28;20383;-88
2022/01/10 08:32:54;;;;;;;;;;;3.90;99.90;;;;;;5087851;28;19959;-90
2022/01/10 08:35:21;;;;;;;;;;;3.90;99.90;;;;;;5046319;28;19928;-90
2022/01/10 08:37:50;;;;;;;;;;;3.90;99.90;;;;;;5056461;28;19935;-90
2022/01/10 08:40:20;;;;;;;;;;;4.00;99.90;;;;;;5089468;28;20258;-89
2022/01/10 08:42:49;;;;;;;;;;;2.40;99.90;;;;;;5074625;28;19936;-89
2022/01/10 08:45:17;;;;;;;;;;;4.00;99.90;;;;;;4705012;28;10000134;-88
2022/01/10 08:47:46;;;;;;;;;;;4.10;99.90;;;;;;5084846;28;19931;-89
2022/01/10 08:50:15;;;;;;;;;;;4.10;99.90;;;;;;5067369;28;19939;-87
2022/01/10 08:52:48;;;;;;;;;;;4.10;99.90;;;;;;5047442;28;19929;-90
2022/01/10 08:55:18;;;;;;;;;;;4.20;99.90;;;;;;5053408;28;19943;-89
2022/01/10 08:57:46;;;;;;;;;;;4.10;99.90;;;;;;5092430;28;20410;-89
2022/01/10 09:00:14;;;;;;;;;;;4.20;99.90;;;;;;5052379;28;19936;-88
2022/01/10 09:02:42;;;;;;;;;;;4.20;99.90;;;;;;5052460;28;19935;-89
2022/01/10 09:05:09;;;;;;;;;;;4.20;99.90;;;;;;5064368;28;19928;-88
2022/01/10 09:07:37;;;;;;;;;;;4.30;99.90;;;;;;5056348;28;19935;-89
2022/01/10 09:10:05;;;;;;;;;;;4.30;99.90;;;;;;5086364;28;20307;-89
2022/01/10 09:12:33;;;;;;;;;;;4.30;99.90;;;;;;5083418;28;19931;-89
2022/01/10 09:15:00;;;;;;;;;;;4.30;99.90;;;;;;5049157;28;19924;-87
2022/01/10 09:17:28;;;;;;;;;;;4.40;99.90;;;;;;5050134;28;19936;-89
2022/01/10 09:19:55;;;;;;;;;;;4.40;99.90;;;;;;5030044;28;19929;-88
2022/01/10 09:22:22;;;;;;;;;;;4.50;99.90;;;;;;5031497;28;19925;-89
2022/01/10 09:24:50;;;;;;;;;;;4.50;99.90;;;;;;5047981;28;19936;-89
2022/01/10 09:27:18;;;;;;;;;;;4.50;99.90;;;;;;5045692;28;19929;-89
2022/01/10 09:29:46;;;;;;;;;;;4.60;99.90;;;;;;5074726;28;19935;-88
2022/01/10 09:32:14;;;;;;;;;;;4.60;99.90;;;;;;5033431;28;19929;-88
2022/01/10 09:34:41;;;;;;;;;;;4.60;99.90;;;;;;5035244;28;19929;-88
2022/01/10 09:37:09;;;;;;;;;;;4.70;99.90;;;;;;5048700;28;19925;-89
2022/01/10 09:39:37;;;;;;;;;;;4.70;99.90;;;;;;5031848;28;19925;-89
2022/01/10 09:42:06;;;;;;;;;;;4.80;99.90;;;;;;5053584;28;19931;-90
2022/01/10 09:44:34;;;;;;;;;;;4.90;99.90;;;;;;5072768;28;19931;-90
2022/01/10 09:47:02;;;;;;;;;;;4.90;99.90;;;;;;5051229;28;19931;-89
2022/01/10 09:49:30;;;;;;;;;;;5.00;99.90;;;;;;5048815;28;19940;-89
2022/01/10 09:51:57;;;;;;;;;;;5.10;99.90;;;;;;5045494;28;19929;-89
2022/01/10 09:54:24;;;;;;;;;;;4.90;99.90;;;;;;5032369;28;19935;-90
2022/01/10 09:56:52;;;;;;;;;;;5.30;99.90;;;;;;5026673;28;19932;-88
2022/01/10 09:59:19;;;;;;;;;;;5.30;99.90;;;;;;5048622;28;19935;-88
2022/01/10 10:01:50;;;;;;;;;;;5.40;99.90;;;;;;5032097;28;19928;-88
2022/01/10 10:04:19;;;;;;;;;;;5.50;99.90;;;;;;5031088;28;19935;-87
2022/01/10 10:06:47;;;;;;;;;;;5.50;99.90;;;;;;5032257;28;19943;-89
2022/01/10 10:09:16;;;;;;;;;;;6.00;99.90;;;;;;5047581;28;20443;-89
2022/01/10 10:11:50;;;;;;;;;;;5.80;99.90;;;;;;5046450;28;19929;-90
2022/01/10 10:14:20;;;;;;;;;;;5.70;99.90;;;;;;5060031;28;19925;-89
2022/01/10 10:16:50;;;;;;;;;;;5.70;99.90;;;;;;5067438;28;19929;-89
2022/01/10 10:19:36;;;;;;;;;;;5.70;99.90;;;;;;5031270;28;20392;-88
2022/01/10 10:22:04;;;;;;;;;;;6.00;99.90;;;;;;5030458;28;19931;-88
2022/01/10 10:24:31;;;;;;;;;;;5.80;99.90;;;;;;5034120;28;19925;-89
2022/01/10 10:26:59;;;;;;;;;;;5.60;99.90;;;;;;5053887;28;19958;-88
2022/01/10 10:29:28;;;;;;;;;;;5.90;99.90;;;;;;5066842;28;19929;-89
2022/01/10 10:31:56;;;;;;;;;;;5.90;99.90;;;;;;5053564;28;19935;-90
2022/01/10 10:34:28;;;;;;;;;;;6.10;99.90;;;;;;5069991;28;19932;-89
2022/01/10 10:37:00;;;;;;;;;;;6.00;99.90;;;;;;5052790;28;19924;-89
2022/01/10 10:39:28;;;;;;;;;;;6.20;99.90;;;;;;5056365;28;20442;-90
2022/01/10 10:41:58;;;;;;;;;;;5.20;99.90;;;;;;5040045;28;19935;-88
2022/01/10 10:44:26;;;;;;;;;;;6.40;99.90;;;;;;5051086;28;19925;-88
2022/01/10 10:46:54;;;;;;;;;;;6.50;99.90;;;;;;5047089;28;19925;-88
2022/01/10 10:49:30;;;;;;;;;;;6.60;99.90;;;;;;5070497;28;19925;-89
2022/01/10 10:51:58;;;;;;;;;;;6.60;99.90;;;;;;5072142;28;19930;-89
2022/01/10 10:54:31;;;;;;;;;;;6.70;99.90;;;;;;5041723;28;19947;-89
2022/01/10 10:56:59;;;;;;;;;;;6.70;99.90;;;;;;5079424;28;19932;-89
2022/01/10 10:59:32;;;;;;;;;;;6.80;99.90;;;;;;5071472;28;19924;-88
2022/01/10 11:01:59;;;;;;;;;;;6.90;99.90;;;;;;5050947;28;19924;-88
2022/01/10 11:04:32;;;;;;;;;;;6.90;99.90;;;;;;5032557;28;19932;-89
2022/01/10 11:07:00;;;;;;;;;;;7.00;99.90;;;;;;5044911;28;19925;-89
2022/01/10 11:34:01;;;;;;;;;;;7.10;99.90;;;;;;5315024;23;19915;-89
2022/01/10 12:44:27;;;;;;;;;;;8.60;99.90;;;;;;4976145;23;19954;-87
2022/01/10 12:46:55;;;;;;;;;;;8.40;99.90;;;;;;4846683;29;19947;-88
2022/01/10 12:49:25;;;;;;;;;;;8.40;99.90;;;;;;4872916;29;19932;-87
2022/01/10 12:51:56;;;;;;;;;;;8.40;99.90;;;;;;4856847;29;19932;-87
2022/01/10 12:54:30;;;;;;;;;;;8.70;99.90;;;;;;4845416;29;19942;-88
2022/01/10 12:57:05;;;;;;;;;;;8.50;99.90;;;;;;4861733;29;20307;-87
2022/01/10 12:59:37;;;;;;;;;;;8.50;99.90;;;;;;4876323;29;19927;-86
2022/01/10 13:02:13;;;;;;;;;;;8.50;99.90;;;;;;4853814;29;20307;-90
2022/01/10 13:05:04;;;;;;;;;;;8.50;99.90;;;;;;4865593;29;19938;-88
2022/01/10 13:07:37;;;;;;;;;;;8.50;99.90;;;;;;4864291;29;20315;-88
2022/01/10 13:10:07;;;;;;;;;;;8.70;99.90;;;;;;4864848;29;19942;-88
2022/01/10 13:12:36;;;;;;;;;;;8.00;99.90;;;;;;4864367;29;19938;-87
2022/01/10 13:15:09;;;;;;;;;;;8.50;99.90;;;;;;4866250;29;19934;-87
2022/01/10 13:17:37;;;;;;;;;;;8.60;99.90;;;;;;4859819;29;19954;-87
2022/01/10 13:20:05;;;;;;;;;;;9.30;99.90;;;;;;4866202;29;19932;-86
2022/01/10 13:22:34;;;;;;;;;;;8.60;99.90;;;;;;4881294;29;19931;-86
2022/01/10 13:25:04;;;;;;;;;;;8.60;99.90;;;;;;4899082;29;19932;-88
2022/01/10 13:27:33;;;;;;;;;;;8.70;99.90;;;;;;4846477;29;19928;-88
2022/01/10 13:30:29;;;;;;;;;;;8.70;99.90;;;;;;4878774;29;19939;-87
2022/01/10 13:32:58;;;;;;;;;;;8.80;99.90;;;;;;4863434;29;19938;-86
2022/01/10 13:35:27;;;;;;;;;;;7.90;99.90;;;;;;4844789;29;20416;-87
2022/01/10 13:37:57;;;;;;;;;;;8.80;99.90;;;;;;4841720;29;19928;-87
2022/01/10 13:40:27;;;;;;;;;;;8.80;99.90;;;;;;4857775;29;19954;-86
2022/01/10 13:42:59;;;;;;;;;;;8.80;99.90;;;;;;4859501;29;19939;-86
2022/01/10 13:45:40;;;;;;;;;;;8.80;99.90;;;;;;4836979;29;19935;-87
2022/01/10 13:48:12;;;;;;;;;;;8.80;99.90;;;;;;4843129;29;19939;-87
2022/01/10 13:50:41;;;;;;;;;;;8.90;99.90;;;;;;4871472;29;20418;-88
2022/01/10 13:53:17;;;;;;;;;;;9.00;99.90;;;;;;4860480;29;19928;-86
2022/01/10 13:55:48;;;;;;;;;;;8.60;99.90;;;;;;4859264;29;19931;-88
2022/01/10 13:58:27;;;;;;;;;;;8.90;99.90;;;;;;4844256;29;19935;-87
2022/01/10 14:00:56;;;;;;;;;;;9.00;99.90;;;;;;4845783;29;19948;-87
2022/01/10 14:03:26;;;;;;;;;;;9.00;99.90;;;;;;4858742;29;19932;-88
2022/01/10 14:06:08;;;;;;;;;;;9.00;99.90;;;;;;4519169;29;9999597;-87
2022/01/10 14:08:36;;;;;;;;;;;9.10;99.90;;;;;;4843373;29;19939;-86
2022/01/10 14:11:05;;;;;;;;;;;9.80;99.90;;;;;;4844779;29;19935;-88
2022/01/10 14:13:33;;;;;;;;;;;9.00;99.90;;;;;;4854702;29;19928;-86
2022/01/10 14:16:00;;;;;;;;;;;9.00;99.90;;;;;;4839785;29;19939;-86
2022/01/10 14:18:28;;;;;;;;;;;9.00;99.90;;;;;;4834866;29;20388;-87
2022/01/10 14:20:56;;;;;;;;;;;9.00;99.90;;;;;;4858569;29;19939;-86
2022/01/10 14:23:25;;;;;;;;;;;9.00;99.90;;;;;;4843310;29;20590;-87
2022/01/10 14:25:53;;;;;;;;;;;9.00;99.90;;;;;;4858849;29;19958;-87
2022/01/10 14:28:21;;;;;;;;;;;9.00;99.90;;;;;;4843926;29;20304;-87
2022/01/10 14:31:07;;;;;;;;;;;9.00;99.90;;;;;;4865766;29;19928;-89
2022/01/10 14:33:47;;;;;;;;;;;8.20;99.90;;;;;;4877011;29;19938;-89
2022/01/10 14:40:32;;;;;;;;;;;9.20;99.90;;;;;;4926666;29;19931;-85
2022/01/10 14:43:43;;;;;;;;;;;7.30;99.90;;;;;;4913557;29;19942;-83
2022/01/10 14:47:02;;;;;;;;;;;8.90;99.90;;;;;;4932729;29;19930;-83
2022/01/10 14:49:40;;;;;;;;;;;9.50;99.90;;;;;;4912081;29;19931;-82
2022/01/10 14:56:33;;;;;;;;;;;8.90;99.90;;;;;;4942193;29;19942;-83
2022/01/10 15:04:14;;;;;;;;;;;;;;;;;;;;;
2022/01/10 15:07:20;;;;;;;;;;;8.90;99.90;;;;;;4939846;29;20175;-83
2022/01/10 15:11:09;;;;;;;;;;;8.90;99.90;;;;;;4911626;29;19931;-85
2022/01/10 15:15:11;;;;;;;;;;;8.80;99.90;;;;;;4917229;29;20280;-84
2022/01/10 15:35:29;;;;;;;;;;;8.70;99.90;;;;;;4905840;29;19927;-90
2022/01/10 15:37:56;;;;;;;;;;;8.60;99.90;;;;;;4849342;29;19927;-89
2022/01/10 15:40:25;;;;;;;;;;;9.00;99.90;;;;;;4879932;29;19934;-88
2022/01/10 15:42:54;;;;;;;;;;;8.60;99.90;;;;;;4874310;29;19945;-89
2022/01/10 15:45:25;;;;;;;;;;;7.60;99.90;;;;;;4864401;29;20263;-89
2022/01/10 15:47:54;;;;;;;;;;;8.60;99.90;;;;;;4869173;29;19935;-90
2022/01/10 15:50:30;;;;;;;;;;;8.50;99.90;;;;;;4891119;29;20400;-89
2022/01/10 15:53:04;;;;;;;;;;;8.50;99.90;;;;;;4878093;29;19928;-89
2022/01/10 15:55:38;;;;;;;;;;;8.50;99.90;;;;;;4882080;29;19927;-89
2022/01/10 16:00:55;;;;;;;;;;;8.50;99.90;;;;;;4857108;29;19926;-89
2022/01/10 16:03:27;;;;;;;;;;;8.50;99.90;;;;;;4844979;29;19926;-86
2022/01/10 16:06:03;;;;;;;;;;;8.60;99.90;;;;;;4866913;29;19916;-89
2022/01/10 16:08:34;;;;;;;;;;;8.50;99.90;;;;;;4856297;29;20277;-89
2022/01/10 16:11:01;;;;;;;;;;;8.40;99.90;;;;;;4812877;29;19932;-88
2022/01/10 16:13:29;;;;;;;;;;;8.50;99.90;;;;;;4823439;29;19928;-88
2022/01/10 16:24:06;;;;;;;;;;;8.80;99.90;;;;;;4837220;29;20026;-88
2022/01/10 16:26:34;;;;;;;;;;;8.50;99.90;;;;;;4861003;29;19928;-90
2022/01/10 16:29:10;;;;;;;;;;;8.50;99.90;;;;;;4834755;29;19935;-89
2022/01/10 16:31:53;;;;;;;;;;;8.50;99.90;;;;;;4836309;29;19929;-88
2022/01/10 16:34:21;;;;;;;;;;;8.40;99.90;;;;;;4826531;29;20308;-87
2022/01/10 16:37:05;;;;;;;;;;;8.40;99.90;;;;;;4852243;29;19962;-85
2022/01/10 16:39:41;;;;;;;;;;;8.40;99.90;;;;;;4842539;29;19931;-89
2022/01/10 16:42:13;;;;;;;;;;;8.60;99.90;;;;;;4811040;29;19932;-88
2022/01/10 16:44:41;;;;;;;;;;;9.20;99.90;;;;;;4832074;29;19936;-88
2022/01/10 16:47:15;;;;;;;;;;;8.80;99.90;;;;;;4815924;29;19936;-88
2022/01/10 16:49:44;;;;;;;;;;;8.50;99.90;;;;;;4819316;29;20392;-89
2022/01/10 16:52:31;;;;;;;;;;;8.50;99.90;;;;;;4848124;29;19940;-88
2022/01/10 16:55:05;;;;;;;;;;;8.40;99.90;;;;;;4831361;29;19939;-89
2022/01/10 16:57:32;;;;;;;;;;;8.40;99.90;;;;;;4845840;29;19928;-89
2022/01/10 17:00:07;;;;;;;;;;;10.00;99.90;;;;;;4856225;29;19932;-89
2022/01/10 17:02:37;;;;;;;;;;;8.40;99.90;;;;;;4848706;29;19935;-89
2022/01/10 17:05:07;;;;;;;;;;;8.40;99.90;;;;;;4833394;29;19932;-89
2022/01/10 17:11:54;;;;;;;;;;;9.50;99.90;;;;;;4808782;29;20152;-82
2022/01/10 17:14:26;;;;;;;;;;;8.40;99.90;;;;;;4809553;29;20214;-84
2022/01/10 17:25:37;;;;;;;;;;;8.40;99.90;;;;;;4886195;29;19928;-89
2022/01/10 17:28:06;;;;;;;;;;;8.40;99.90;;;;;;4838521;29;19932;-88
2022/01/10 17:30:33;;;;;;;;;;;8.10;99.90;;;;;;4854460;29;19927;-88
2022/01/10 17:33:04;;;;;;;;;;;8.50;99.90;;;;;;4871102;29;19932;-88
2022/01/10 17:35:31;;;;;;;;;;;9.30;99.90;;;;;;4865343;29;19932;-89
2022/01/10 17:38:03;;;;;;;;;;;8.50;99.90;;;;;;4839341;29;19928;-90
2022/01/10 17:40:36;;;;;;;;;;;8.50;99.90;;;;;;4847856;29;19932;-89
2022/01/10 17:43:03;;;;;;;;;;;8.50;99.90;;;;;;4844025;29;19928;-88
2022/01/10 17:45:35;;;;;;;;;;;7.40;99.90;;;;;;4855819;29;19928;-89
2022/01/10 17:48:04;;;;;;;;;;;8.80;99.90;;;;;;4872951;29;19928;-89
2022/01/10 17:50:33;;;;;;;;;;;8.60;99.90;;;;;;4847841;29;19931;-89
2022/01/10 17:53:02;;;;;;;;;;;8.60;99.90;;;;;;4849804;29;20416;-89
2022/01/10 17:55:35;;;;;;;;;;;8.50;99.90;;;;;;4876323;29;19942;-89
2022/01/10 17:58:04;;;;;;;;;;;8.50;99.90;;;;;;4855688;29;19928;-88
2022/01/10 18:00:33;;;;;;;;;;;8.50;99.90;;;;;;4867303;29;19955;-88
2022/01/10 18:03:01;;;;;;;;;;;8.70;99.90;;;;;;4888605;29;20400;-88
2022/01/10 18:05:30;;;;;;;;;;;8.60;99.90;;;;;;4841214;29;19928;-88
2022/01/10 18:08:14;;;;;;;;;;;8.60;99.90;;;;;;4851584;29;20343;-87
2022/01/10 18:10:42;;;;;;;;;;;8.60;99.90;;;;;;4865822;29;20551;-86
2022/01/10 18:13:13;;;;;;;;;;;8.90;99.90;;;;;;4856659;29;19935;-89
2022/01/10 18:16:08;;;;;;;;;;;8.60;99.90;;;;;;4883237;24;20452;-82
2022/01/10 18:18:40;;;;;;;;;;;8.70;99.90;;;;;;4880613;29;19927;-82
2022/01/10 18:21:28;;;;;;;;;;;8.40;99.90;;;;;;4896173;29;19932;-85
2022/01/10 18:24:46;;;;;;;;;;;9.00;99.90;;;;;;4887693;29;20385;-85
2022/01/10 18:28:53;;;;;;;;;;;;;;;;;;;;;
2022/01/10 18:31:58;;;;;;;;;;;8.90;99.90;;;;;;4816545;29;19939;-84
2022/01/10 18:34:57;;;;;;;;;;;9.20;99.90;;;;;;4826605;29;19936;-83
2022/01/10 18:41:00;;;;;;;;;;;9.50;99.90;;;;;;4833298;29;19956;-83
2022/01/10 18:44:05;;;;;;;;;;;8.90;99.90;;;;;;4850550;29;19932;-85
2022/01/10 18:46:35;;;;;;;;;;;8.90;99.90;;;;;;4829153;29;19937;-83
2022/01/10 18:49:07;;;;;;;;;;;8.40;99.90;;;;;;4811860;29;19935;-82
2022/01/10 18:51:38;;;;;;;;;;;9.00;99.90;;;;;;4842686;29;19937;-82
2022/01/10 18:54:08;;;;;;;;;;;8.90;99.90;;;;;;4841173;29;19932;-84
2022/01/10 18:56:36;;;;;;;;;;;9.10;99.90;;;;;;4828307;29;19933;-83
2022/01/10 18:59:07;;;;;;;;;;;9.00;99.90;;;;;;4814944;29;19947;-81
2022/01/10 19:01:48;;;;;;;;;;;9.00;99.90;;;;;;4838724;29;19935;-82
2022/01/10 19:04:20;;;;;;;;;;;9.20;99.90;;;;;;4888964;29;19935;-83
2022/01/10 19:06:53;;;;;;;;;;;9.10;99.90;;;;;;4873242;29;19957;-81
2022/01/10 19:09:25;;;;;;;;;;;9.00;99.90;;;;;;4872276;29;19936;-82
2022/01/10 19:11:53;;;;;;;;;;;9.00;99.90;;;;;;4872053;29;19928;-81
2022/01/10 19:14:24;;;;;;;;;;;9.10;99.90;;;;;;4871644;29;20077;-81
2022/01/10 19:16:52;;;;;;;;;;;9.10;99.90;;;;;;4885014;29;19935;-83
2022/01/10 19:19:26;;;;;;;;;;;9.20;99.90;;;;;;4868631;29;19927;-83
2022/01/10 19:22:04;;;;;;;;;;;9.10;99.90;;;;;;4885075;29;19935;-81
2022/01/10 19:24:32;;;;;;;;;;;9.10;99.90;;;;;;4870428;29;19936;-82
2022/01/10 19:27:00;;;;;;;;;;;9.10;99.90;;;;;;4886654;29;19935;-82
2022/01/10 19:29:52;;;;;;;;;;;9.20;99.90;;;;;;4902345;29;20370;-82
2022/01/10 19:32:24;;;;;;;;;;;9.10;99.90;;;;;;4562962;29;10000052;-81
2022/01/10 19:34:52;;;;;;;;;;;9.10;99.90;;;;;;4885930;29;19927;-84
2022/01/10 19:37:37;;;;;;;;;;;;;;;;;;;;;
2022/01/10 19:43:30;;;;;;;;;;;9.00;99.90;;;;;;4878511;29;19932;-82
2022/01/10 19:46:27;;;;;;;;;;;7.40;99.90;;;;;;4877996;29;19923;-84
2022/01/10 19:48:57;;;;;;;;;;;9.30;99.90;;;;;;4891882;29;19934;-81
2022/01/10 19:51:31;;;;;;;;;;;9.00;99.90;;;;;;4891404;29;19935;-81